sensor_id;sensor_type;location;lat;lon;timestamp;temperature;humidity
18753;DHT22;9505;50.882;5.350;2022-11-20T00:00:45;3.60;99.90
18753;DHT22;9505;50.882;5.350;2022-11-20T00:03:10;3.70;99.90
18753;DHT22;9505;50.882;5.350;2022-11-20T00:05:36;3.70;99.90
18753;DHT22;9505;50.882;5.350;2022-11-20T00:08:01;3.80;99.90
18753;DHT22;9505;50.882;5.350;2022-11-20T00:10:27;3.80;99.90
18753;DHT22;9505;50.882;5.350;2022-11-20T00:12:53;3.90;99.90
18753;DHT22;9505;50.882;5.350;2022-11-20T00:15:18;3.90;99.90
18753;DHT22;9505;50.882;5.350;2022-11-20T00:17:44;3.90;99.90
18753;DHT22;9505;50.882;5.350;2022-11-20T00:20:10;3.90;99.90
18753;DHT22;9505;50.882;5.350;2022-11-20T00:22:36;3.90;99.90
18753;DHT22;9505;50.882;5.350;2022-11-20T00:25:01;3.90;99.90
18753;DHT22;9505;50.882;5.350;2022-11-20T00:27:27;3.80;99.90
18753;DHT22;9505;50.882;5.350;2022-11-20T00:29:52;3.70;99.90
18753;DHT22;9505;50.882;5.350;2022-11-20T00:32:18;3.70;99.90
18753;DHT22;9505;50.882;5.350;2022-11-20T00:34:44;3.70;99.90
18753;DHT22;9505;50.882;5.350;2022-11-20T00:37:09;3.80;99.90
18753;DHT22;9505;50.882;5.350;2022-11-20T00:39:35;3.90;99.90
18753;DHT22;9505;50.882;5.350;2022-11-20T00:42:01;3.90;99.90
18753;DHT22;9505;50.882;5.350;2022-11-20T00:44:26;3.90;99.90
18753;DHT22;9505;50.882;5.350;2022-11-20T00:46:52;3.80;99.90
18753;DHT22;9505;50.882;5.350;2022-11-20T00:49:17;3.80;99.90
18753;DHT22;9505;50.882;5.350;2022-11-20T00:51:43;3.90;99.90
18753;DHT22;9505;50.882;5.350;2022-11-20T00:54:08;3.90;99.90
18753;DHT22;9505;50.882;5.350;2022-11-20T00:56:34;3.90;99.90
18753;DHT22;9505;50.882;5.350;2022-11-20T00:59:00;3.90;99.90
18753;DHT22;9505;50.882;5.350;2022-11-20T01:01:26;3.90;99.90
18753;DHT22;9505;50.882;5.350;2022-11-20T01:03:56;3.90;99.90
18753;DHT22;9505;50.882;5.350;2022-11-20T01:06:28;3.90;99.90
18753;DHT22;9505;50.882;5.350;2022-11-20T01:08:58;3.90;99.90
18753;DHT22;9505;50.882;5.350;2022-11-20T01:11:27;3.90;99.90
18753;DHT22;9505;50.882;5.350;2022-11-20T01:13:54;3.90;99.90
18753;DHT22;9505;50.882;5.350;2022-11-20T01:16:22;3.90;99.90
18753;DHT22;9505;50.882;5.350;2022-11-20T01:18:51;4.00;99.90
18753;DHT22;9505;50.882;5.350;2022-11-20T01:23:44;4.00;99.90
18753;DHT22;9505;50.882;5.350;2022-11-20T01:26:16;3.90;99.90
18753;DHT22;9505;50.882;5.350;2022-11-20T01:28:42;4.00;99.90
18753;DHT22;9505;50.882;5.350;2022-11-20T01:31:34;4.00;99.90
18753;DHT22;9505;50.882;5.350;2022-11-20T01:34:03;3.90;99.90
18753;DHT22;9505;50.882;5.350;2022-11-20T01:36:30;3.90;99.90
18753;DHT22;9505;50.882;5.350;2022-11-20T01:39:02;3.90;99.90
18753;DHT22;9505;50.882;5.350;2022-11-20T01:41:30;3.80;99.90
18753;DHT22;9505;50.882;5.350;2022-11-20T01:44:18;3.80;99.90
18753;DHT22;9505;50.882;5.350;2022-11-20T01:47:02;3.90;99.90
18753;DHT22;9505;50.882;5.350;2022-11-20T01:49:38;3.90;99.90
18753;DHT22;9505;50.882;5.350;2022-11-20T01:52:18;3.80;99.90
18753;DHT22;9505;50.882;5.350;2022-11-20T01:55:22;3.80;99.90
18753;DHT22;9505;50.882;5.350;2022-11-20T01:57:49;3.70;99.90
18753;DHT22;9505;50.882;5.350;2022-11-20T02:00:17;3.80;99.90
18753;DHT22;9505;50.882;5.350;2022-11-20T02:03:01;3.90;99.90
18753;DHT22;9505;50.882;5.350;2022-11-20T02:05:38;3.90;99.90
18753;DHT22;9505;50.882;5.350;2022-11-20T02:08:06;3.80;99.90
18753;DHT22;9505;50.882;5.350;2022-11-20T02:10:33;3.90;99.90
18753;DHT22;9505;50.882;5.350;2022-11-20T02:12:58;4.00;99.90
18753;DHT22;9505;50.882;5.350;2022-11-20T02:15:43;3.90;99.90
18753;DHT22;9505;50.882;5.350;2022-11-20T02:18:10;3.80;99.90
18753;DHT22;9505;50.882;5.350;2022-11-20T02:20:36;3.80;99.90
18753;DHT22;9505;50.882;5.350;2022-11-20T02:23:11;3.80;99.90
18753;DHT22;9505;50.882;5.350;2022-11-20T02:25:38;3.90;99.90
18753;DHT22;9505;50.882;5.350;2022-11-20T02:28:05;3.70;99.90
18753;DHT22;9505;50.882;5.350;2022-11-20T02:30:31;3.70;99.90
18753;DHT22;9505;50.882;5.350;2022-11-20T02:32:58;3.80;99.90
18753;DHT22;9505;50.882;5.350;2022-11-20T02:37:52;3.60;99.90
18753;DHT22;9505;50.882;5.350;2022-11-20T02:40:18;3.60;99.90
18753;DHT22;9505;50.882;5.350;2022-11-20T02:42:44;3.50;99.90
18753;DHT22;9505;50.882;5.350;2022-11-20T02:45:10;3.50;99.90
18753;DHT22;9505;50.882;5.350;2022-11-20T02:47:36;3.50;99.90
18753;DHT22;9505;50.882;5.350;2022-11-20T02:50:03;3.60;99.90
18753;DHT22;9505;50.882;5.350;2022-11-20T02:52:29;3.60;99.90
18753;DHT22;9505;50.882;5.350;2022-11-20T02:54:55;3.60;99.90
18753;DHT22;9505;50.882;5.350;2022-11-20T02:57:20;3.50;99.90
18753;DHT22;9505;50.882;5.350;2022-11-20T02:59:46;3.40;99.90
18753;DHT22;9505;50.882;5.350;2022-11-20T03:02:11;3.50;99.90
18753;DHT22;9505;50.882;5.350;2022-11-20T03:04:37;3.60;99.90
18753;DHT22;9505;50.882;5.350;2022-11-20T03:07:03;3.50;99.90
18753;DHT22;9505;50.882;5.350;2022-11-20T03:09:29;3.60;99.90
18753;DHT22;9505;50.882;5.350;2022-11-20T03:11:54;3.60;99.90
18753;DHT22;9505;50.882;5.350;2022-11-20T03:14:20;3.60;99.90
18753;DHT22;9505;50.882;5.350;2022-11-20T03:16:46;3.60;99.90
18753;DHT22;9505;50.882;5.350;2022-11-20T03:19:12;3.60;99.90
18753;DHT22;9505;50.882;5.350;2022-11-20T03:21:37;3.60;99.90
18753;DHT22;9505;50.882;5.350;2022-11-20T03:24:03;3.60;99.90
18753;DHT22;9505;50.882;5.350;2022-11-20T03:26:29;3.50;99.90
18753;DHT22;9505;50.882;5.350;2022-11-20T03:28:56;3.50;99.90
18753;DHT22;9505;50.882;5.350;2022-11-20T03:31:25;3.60;99.90
18753;DHT22;9505;50.882;5.350;2022-11-20T03:33:51;3.60;99.90
18753;DHT22;9505;50.882;5.350;2022-11-20T03:36:19;3.60;99.90
18753;DHT22;9505;50.882;5.350;2022-11-20T03:38:45;3.60;99.90
18753;DHT22;9505;50.882;5.350;2022-11-20T03:41:14;3.60;99.90
18753;DHT22;9505;50.882;5.350;2022-11-20T03:43:40;3.50;99.90
18753;DHT22;9505;50.882;5.350;2022-11-20T03:46:06;3.50;99.90
18753;DHT22;9505;50.882;5.350;2022-11-20T03:48:32;3.50;99.90
18753;DHT22;9505;50.882;5.350;2022-11-20T03:51:16;3.60;99.90
18753;DHT22;9505;50.882;5.350;2022-11-20T03:53:43;3.70;99.90
18753;DHT22;9505;50.882;5.350;2022-11-20T03:56:10;3.70;99.90
18753;DHT22;9505;50.882;5.350;2022-11-20T03:58:37;3.60;99.90
18753;DHT22;9505;50.882;5.350;2022-11-20T04:01:14;3.60;99.90
18753;DHT22;9505;50.882;5.350;2022-11-20T04:03:41;3.70;99.90
18753;DHT22;9505;50.882;5.350;2022-11-20T04:06:10;3.80;99.90
18753;DHT22;9505;50.882;5.350;2022-11-20T04:08:36;3.80;99.90
18753;DHT22;9505;50.882;5.350;2022-11-20T04:11:18;3.80;99.90
18753;DHT22;9505;50.882;5.350;2022-11-20T04:13:52;3.80;99.90
18753;DHT22;9505;50.882;5.350;2022-11-20T04:16:18;3.80;99.90
18753;DHT22;9505;50.882;5.350;2022-11-20T04:18:44;3.70;99.90
18753;DHT22;9505;50.882;5.350;2022-11-20T04:21:10;3.70;99.90
18753;DHT22;9505;50.882;5.350;2022-11-20T04:23:37;3.80;99.90
18753;DHT22;9505;50.882;5.350;2022-11-20T04:26:09;3.70;99.90
18753;DHT22;9505;50.882;5.350;2022-11-20T04:28:36;3.60;99.90
18753;DHT22;9505;50.882;5.350;2022-11-20T04:31:04;3.60;99.90
18753;DHT22;9505;50.882;5.350;2022-11-20T04:33:30;3.60;99.90
18753;DHT22;9505;50.882;5.350;2022-11-20T04:36:00;3.60;99.90
18753;DHT22;9505;50.882;5.350;2022-11-20T04:38:26;3.60;99.90
18753;DHT22;9505;50.882;5.350;2022-11-20T04:40:56;3.60;99.90
18753;DHT22;9505;50.882;5.350;2022-11-20T04:43:22;3.70;99.90
18753;DHT22;9505;50.882;5.350;2022-11-20T04:45:55;3.80;99.90
18753;DHT22;9505;50.882;5.350;2022-11-20T04:48:21;3.80;99.90
18753;DHT22;9505;50.882;5.350;2022-11-20T04:50:47;3.80;99.90
18753;DHT22;9505;50.882;5.350;2022-11-20T04:53:13;3.90;99.90
18753;DHT22;9505;50.882;5.350;2022-11-20T04:55:39;3.90;99.90
18753;DHT22;9505;50.882;5.350;2022-11-20T04:58:04;3.90;99.90
18753;DHT22;9505;50.882;5.350;2022-11-20T05:00:30;4.00;99.90
18753;DHT22;9505;50.882;5.350;2022-11-20T05:02:55;4.00;99.90
18753;DHT22;9505;50.882;5.350;2022-11-20T05:05:21;4.10;99.90
18753;DHT22;9505;50.882;5.350;2022-11-20T05:07:46;4.10;99.90
18753;DHT22;9505;50.882;5.350;2022-11-20T05:10:12;4.00;99.90
18753;DHT22;9505;50.882;5.350;2022-11-20T05:12:38;4.10;99.90
18753;DHT22;9505;50.882;5.350;2022-11-20T05:15:03;4.00;99.90
18753;DHT22;9505;50.882;5.350;2022-11-20T05:17:29;4.00;99.90
18753;DHT22;9505;50.882;5.350;2022-11-20T05:19:55;4.10;99.90
18753;DHT22;9505;50.882;5.350;2022-11-20T05:22:20;4.00;99.90
18753;DHT22;9505;50.882;5.350;2022-11-20T05:24:46;3.90;99.90
18753;DHT22;9505;50.882;5.350;2022-11-20T05:27:11;3.80;99.90
18753;DHT22;9505;50.882;5.350;2022-11-20T05:29:37;3.90;99.90
18753;DHT22;9505;50.882;5.350;2022-11-20T05:32:02;4.00;99.90
18753;DHT22;9505;50.882;5.350;2022-11-20T05:34:28;4.00;99.90
18753;DHT22;9505;50.882;5.350;2022-11-20T05:36:54;4.10;99.90
18753;DHT22;9505;50.882;5.350;2022-11-20T05:39:19;4.10;99.90
18753;DHT22;9505;50.882;5.350;2022-11-20T05:41:45;4.00;99.90
18753;DHT22;9505;50.882;5.350;2022-11-20T05:44:11;4.00;99.90
18753;DHT22;9505;50.882;5.350;2022-11-20T05:46:36;4.00;99.90
18753;DHT22;9505;50.882;5.350;2022-11-20T05:49:02;4.00;99.90
18753;DHT22;9505;50.882;5.350;2022-11-20T05:51:28;4.00;99.90
18753;DHT22;9505;50.882;5.350;2022-11-20T05:53:56;4.00;99.90
18753;DHT22;9505;50.882;5.350;2022-11-20T05:56:22;4.00;99.90
18753;DHT22;9505;50.882;5.350;2022-11-20T05:58:48;3.90;99.90
18753;DHT22;9505;50.882;5.350;2022-11-20T06:01:19;3.80;99.90
18753;DHT22;9505;50.882;5.350;2022-11-20T06:03:46;3.80;99.90
18753;DHT22;9505;50.882;5.350;2022-11-20T06:06:13;3.80;99.90
18753;DHT22;9505;50.882;5.350;2022-11-20T06:08:39;3.90;99.90
18753;DHT22;9505;50.882;5.350;2022-11-20T06:11:07;4.00;99.90
18753;DHT22;9505;50.882;5.350;2022-11-20T06:13:33;4.00;99.90
18753;DHT22;9505;50.882;5.350;2022-11-20T06:15:59;4.10;99.90
18753;DHT22;9505;50.882;5.350;2022-11-20T06:18:26;4.10;99.90
18753;DHT22;9505;50.882;5.350;2022-11-20T06:21:12;4.10;99.90
18753;DHT22;9505;50.882;5.350;2022-11-20T06:23:39;4.20;99.90
18753;DHT22;9505;50.882;5.350;2022-11-20T06:26:06;4.20;99.90
18753;DHT22;9505;50.882;5.350;2022-11-20T06:28:32;4.10;99.90
18753;DHT22;9505;50.882;5.350;2022-11-20T06:30:58;4.20;99.90
18753;DHT22;9505;50.882;5.350;2022-11-20T06:33:24;4.20;99.90
18753;DHT22;9505;50.882;5.350;2022-11-20T06:35:50;4.20;99.90
18753;DHT22;9505;50.882;5.350;2022-11-20T06:38:15;4.20;99.90
18753;DHT22;9505;50.882;5.350;2022-11-20T06:40:42;4.20;99.90
18753;DHT22;9505;50.882;5.350;2022-11-20T06:43:09;4.30;99.90
18753;DHT22;9505;50.882;5.350;2022-11-20T06:45:35;4.20;99.90
18753;DHT22;9505;50.882;5.350;2022-11-20T06:48:01;4.20;99.90
18753;DHT22;9505;50.882;5.350;2022-11-20T06:50:27;4.20;99.90
18753;DHT22;9505;50.882;5.350;2022-11-20T06:52:52;4.30;99.90
18753;DHT22;9505;50.882;5.350;2022-11-20T06:55:18;4.20;99.90
18753;DHT22;9505;50.882;5.350;2022-11-20T06:57:44;4.20;99.90
18753;DHT22;9505;50.882;5.350;2022-11-20T07:00:10;4.20;99.90
18753;DHT22;9505;50.882;5.350;2022-11-20T07:02:35;4.10;99.90
18753;DHT22;9505;50.882;5.350;2022-11-20T07:05:01;4.10;99.90
18753;DHT22;9505;50.882;5.350;2022-11-20T07:07:26;4.00;99.90
18753;DHT22;9505;50.882;5.350;2022-11-20T07:09:52;4.10;99.90
18753;DHT22;9505;50.882;5.350;2022-11-20T07:12:18;4.10;99.90
18753;DHT22;9505;50.882;5.350;2022-11-20T07:14:43;4.10;99.90
18753;DHT22;9505;50.882;5.350;2022-11-20T07:17:09;4.20;99.90
18753;DHT22;9505;50.882;5.350;2022-11-20T07:19:34;4.20;99.90
18753;DHT22;9505;50.882;5.350;2022-11-20T07:22:00;4.20;99.90
18753;DHT22;9505;50.882;5.350;2022-11-20T07:24:25;4.20;99.90
18753;DHT22;9505;50.882;5.350;2022-11-20T07:26:51;4.30;99.90
18753;DHT22;9505;50.882;5.350;2022-11-20T07:29:16;4.30;99.90
18753;DHT22;9505;50.882;5.350;2022-11-20T07:31:43;4.30;99.90
18753;DHT22;9505;50.882;5.350;2022-11-20T07:34:08;4.40;99.90
18753;DHT22;9505;50.882;5.350;2022-11-20T07:36:34;4.40;99.90
18753;DHT22;9505;50.882;5.350;2022-11-20T07:39:00;4.40;99.90
18753;DHT22;9505;50.882;5.350;2022-11-20T07:41:25;4.40;99.90
18753;DHT22;9505;50.882;5.350;2022-11-20T07:43:51;4.40;99.90
18753;DHT22;9505;50.882;5.350;2022-11-20T07:46:17;4.40;99.90
18753;DHT22;9505;50.882;5.350;2022-11-20T07:48:42;4.50;99.90
18753;DHT22;9505;50.882;5.350;2022-11-20T07:51:08;4.50;99.90
18753;DHT22;9505;50.882;5.350;2022-11-20T07:53:33;4.60;99.90
18753;DHT22;9505;50.882;5.350;2022-11-20T07:56:00;4.60;99.90
18753;DHT22;9505;50.882;5.350;2022-11-20T07:58:26;4.70;99.90
18753;DHT22;9505;50.882;5.350;2022-11-20T08:00:53;4.80;99.90
18753;DHT22;9505;50.882;5.350;2022-11-20T08:03:19;4.90;99.90
18753;DHT22;9505;50.882;5.350;2022-11-20T08:05:44;5.10;99.90
18753;DHT22;9505;50.882;5.350;2022-11-20T08:08:10;5.20;99.90
18753;DHT22;9505;50.882;5.350;2022-11-20T08:10:36;5.30;99.90
18753;DHT22;9505;50.882;5.350;2022-11-20T08:13:01;5.20;99.90
18753;DHT22;9505;50.882;5.350;2022-11-20T08:15:49;5.20;99.90
18753;DHT22;9505;50.882;5.350;2022-11-20T08:18:16;5.30;99.90
18753;DHT22;9505;50.882;5.350;2022-11-20T08:20:43;5.30;99.90
18753;DHT22;9505;50.882;5.350;2022-11-20T08:23:08;5.30;99.90
18753;DHT22;9505;50.882;5.350;2022-11-20T08:25:36;5.30;99.90
18753;DHT22;9505;50.882;5.350;2022-11-20T08:28:04;5.20;99.90
18753;DHT22;9505;50.882;5.350;2022-11-20T08:30:30;5.20;99.90
18753;DHT22;9505;50.882;5.350;2022-11-20T08:33:01;5.20;99.90
18753;DHT22;9505;50.882;5.350;2022-11-20T08:35:26;5.20;99.90
18753;DHT22;9505;50.882;5.350;2022-11-20T08:37:52;5.30;99.90
18753;DHT22;9505;50.882;5.350;2022-11-20T08:40:18;5.30;99.90
18753;DHT22;9505;50.882;5.350;2022-11-20T08:42:50;5.30;99.90
18753;DHT22;9505;50.882;5.350;2022-11-20T08:45:16;5.40;99.90
18753;DHT22;9505;50.882;5.350;2022-11-20T08:47:43;5.50;99.90
18753;DHT22;9505;50.882;5.350;2022-11-20T08:50:10;5.60;99.90
18753;DHT22;9505;50.882;5.350;2022-11-20T08:52:36;5.70;99.90
18753;DHT22;9505;50.882;5.350;2022-11-20T08:55:03;5.70;99.90
18753;DHT22;9505;50.882;5.350;2022-11-20T08:57:34;5.80;99.90
18753;DHT22;9505;50.882;5.350;2022-11-20T09:00:00;5.90;99.90
18753;DHT22;9505;50.882;5.350;2022-11-20T09:02:26;5.90;99.90
18753;DHT22;9505;50.882;5.350;2022-11-20T09:04:52;6.10;99.90
18753;DHT22;9505;50.882;5.350;2022-11-20T09:07:19;6.20;99.90
18753;DHT22;9505;50.882;5.350;2022-11-20T09:09:44;6.20;99.90
18753;DHT22;9505;50.882;5.350;2022-11-20T09:12:10;6.30;99.90
18753;DHT22;9505;50.882;5.350;2022-11-20T09:14:36;6.40;99.90
18753;DHT22;9505;50.882;5.350;2022-11-20T09:17:01;6.40;99.90
18753;DHT22;9505;50.882;5.350;2022-11-20T09:19:27;6.50;99.90
18753;DHT22;9505;50.882;5.350;2022-11-20T09:21:53;6.60;99.90
18753;DHT22;9505;50.882;5.350;2022-11-20T09:24:19;6.50;99.90
18753;DHT22;9505;50.882;5.350;2022-11-20T09:26:46;6.60;99.90
18753;DHT22;9505;50.882;5.350;2022-11-20T09:29:11;6.60;99.90
18753;DHT22;9505;50.882;5.350;2022-11-20T09:31:37;6.50;99.90
18753;DHT22;9505;50.882;5.350;2022-11-20T09:34:03;6.40;99.90
18753;DHT22;9505;50.882;5.350;2022-11-20T09:36:28;6.40;99.90
18753;DHT22;9505;50.882;5.350;2022-11-20T09:38:54;6.30;99.90
18753;DHT22;9505;50.882;5.350;2022-11-20T09:41:53;6.30;99.90
18753;DHT22;9505;50.882;5.350;2022-11-20T09:44:49;6.30;99.90
18753;DHT22;9505;50.882;5.350;2022-11-20T09:50:32;6.60;99.90
18753;DHT22;9505;50.882;5.350;2022-11-20T09:56:01;6.60;99.90
18753;DHT22;9505;50.882;5.350;2022-11-20T10:03:54;6.90;99.90
18753;DHT22;9505;50.882;5.350;2022-11-20T10:06:34;6.90;99.90
18753;DHT22;9505;50.882;5.350;2022-11-20T10:12:12;7.10;99.90
18753;DHT22;9505;50.882;5.350;2022-11-20T10:22:50;7.00;99.90
18753;DHT22;9505;50.882;5.350;2022-11-20T10:25:24;7.00;99.90
18753;DHT22;9505;50.882;5.350;2022-11-20T10:30:42;7.20;99.90
18753;DHT22;9505;50.882;5.350;2022-11-20T10:33:17;7.30;99.90
18753;DHT22;9505;50.882;5.350;2022-11-20T10:38:27;7.40;99.90
18753;DHT22;9505;50.882;5.350;2022-11-20T10:40:59;7.40;99.90
18753;DHT22;9505;50.882;5.350;2022-11-20T10:43:46;7.40;99.90
18753;DHT22;9505;50.882;5.350;2022-11-20T10:46:18;7.50;99.90
18753;DHT22;9505;50.882;5.350;2022-11-20T10:48:46;7.50;99.90
18753;DHT22;9505;50.882;5.350;2022-11-20T10:51:37;7.50;99.90
18753;DHT22;9505;50.882;5.350;2022-11-20T10:56:51;7.60;99.90
18753;DHT22;9505;50.882;5.350;2022-11-20T11:02:44;7.70;99.90
18753;DHT22;9505;50.882;5.350;2022-11-20T11:07:56;8.10;99.90
18753;DHT22;9505;50.882;5.350;2022-11-20T11:10:39;8.20;99.90
18753;DHT22;9505;50.882;5.350;2022-11-20T11:13:07;8.30;99.90
18753;DHT22;9505;50.882;5.350;2022-11-20T11:15:43;8.40;99.90
18753;DHT22;9505;50.882;5.350;2022-11-20T11:18:10;8.50;99.90
18753;DHT22;9505;50.882;5.350;2022-11-20T11:20:36;8.50;99.90
18753;DHT22;9505;50.882;5.350;2022-11-20T11:23:03;8.50;99.90
18753;DHT22;9505;50.882;5.350;2022-11-20T11:25:35;8.50;99.90
18753;DHT22;9505;50.882;5.350;2022-11-20T11:28:26;8.50;99.90
18753;DHT22;9505;50.882;5.350;2022-11-20T11:30:52;8.60;99.90
18753;DHT22;9505;50.882;5.350;2022-11-20T11:33:27;8.70;99.90
18753;DHT22;9505;50.882;5.350;2022-11-20T11:36:18;8.80;99.90
18753;DHT22;9505;50.882;5.350;2022-11-20T11:38:45;8.90;99.90
18753;DHT22;9505;50.882;5.350;2022-11-20T11:41:25;8.90;99.90
18753;DHT22;9505;50.882;5.350;2022-11-20T11:44:00;9.00;99.90
18753;DHT22;9505;50.882;5.350;2022-11-20T11:46:55;9.10;99.90
18753;DHT22;9505;50.882;5.350;2022-11-20T11:49:22;9.20;99.90
18753;DHT22;9505;50.882;5.350;2022-11-20T11:54:30;9.30;99.90
18753;DHT22;9505;50.882;5.350;2022-11-20T11:57:00;9.40;99.90
18753;DHT22;9505;50.882;5.350;2022-11-20T12:05:03;10.00;99.90
18753;DHT22;9505;50.882;5.350;2022-11-20T12:10:02;10.40;99.90
18753;DHT22;9505;50.882;5.350;2022-11-20T12:12:42;10.50;99.90
18753;DHT22;9505;50.882;5.350;2022-11-20T12:15:21;10.60;99.90
18753;DHT22;9505;50.882;5.350;2022-11-20T12:17:48;10.70;99.90
18753;DHT22;9505;50.882;5.350;2022-11-20T12:20:14;10.80;99.90
18753;DHT22;9505;50.882;5.350;2022-11-20T12:25:24;10.60;99.90
18753;DHT22;9505;50.882;5.350;2022-11-20T12:30:22;10.70;99.90
18753;DHT22;9505;50.882;5.350;2022-11-20T12:33:12;10.70;99.90
18753;DHT22;9505;50.882;5.350;2022-11-20T12:59:16;10.30;99.90
18753;DHT22;9505;50.882;5.350;2022-11-20T13:01:51;10.20;99.90
18753;DHT22;9505;50.882;5.350;2022-11-20T13:07:10;10.30;99.90
18753;DHT22;9505;50.882;5.350;2022-11-20T13:09:43;10.10;99.90
18753;DHT22;9505;50.882;5.350;2022-11-20T13:17:36;9.80;99.90
18753;DHT22;9505;50.882;5.350;2022-11-20T13:20:05;9.70;99.90
18753;DHT22;9505;50.882;5.350;2022-11-20T13:22:53;9.50;99.90
18753;DHT22;9505;50.882;5.350;2022-11-20T13:25:33;9.40;99.90
18753;DHT22;9505;50.882;5.350;2022-11-20T13:28:04;9.30;99.90
18753;DHT22;9505;50.882;5.350;2022-11-20T13:30:31;9.10;99.90
18753;DHT22;9505;50.882;5.350;2022-11-20T13:33:02;9.00;99.90
18753;DHT22;9505;50.882;5.350;2022-11-20T13:35:35;8.90;99.90
18753;DHT22;9505;50.882;5.350;2022-11-20T13:38:12;8.80;99.90
18753;DHT22;9505;50.882;5.350;2022-11-20T13:40:54;8.70;99.90
18753;DHT22;9505;50.882;5.350;2022-11-20T13:43:40;8.60;99.90
18753;DHT22;9505;50.882;5.350;2022-11-20T13:46:08;8.50;99.90
18753;DHT22;9505;50.882;5.350;2022-11-20T13:48:44;8.30;99.90
18753;DHT22;9505;50.882;5.350;2022-11-20T13:51:32;8.20;99.90
18753;DHT22;9505;50.882;5.350;2022-11-20T13:57:20;8.00;99.90
18753;DHT22;9505;50.882;5.350;2022-11-20T14:00:13;7.90;99.90
18753;DHT22;9505;50.882;5.350;2022-11-20T14:02:40;7.80;99.90
18753;DHT22;9505;50.882;5.350;2022-11-20T14:05:19;7.80;99.90
18753;DHT22;9505;50.882;5.350;2022-11-20T14:07:45;7.80;99.90
18753;DHT22;9505;50.882;5.350;2022-11-20T14:10:38;7.60;99.90
18753;DHT22;9505;50.882;5.350;2022-11-20T14:13:20;7.60;99.90
18753;DHT22;9505;50.882;5.350;2022-11-20T14:15:46;7.60;99.90
18753;DHT22;9505;50.882;5.350;2022-11-20T14:18:21;7.60;99.90
18753;DHT22;9505;50.882;5.350;2022-11-20T14:20:47;7.60;99.90
18753;DHT22;9505;50.882;5.350;2022-11-20T14:23:26;7.60;99.90
18753;DHT22;9505;50.882;5.350;2022-11-20T14:25:52;7.60;99.90
18753;DHT22;9505;50.882;5.350;2022-11-20T14:28:25;7.60;99.90
18753;DHT22;9505;50.882;5.350;2022-11-20T14:30:51;7.60;99.90
18753;DHT22;9505;50.882;5.350;2022-11-20T14:33:17;7.50;99.90
18753;DHT22;9505;50.882;5.350;2022-11-20T14:35:49;7.50;99.90
18753;DHT22;9505;50.882;5.350;2022-11-20T14:38:17;7.50;99.90
18753;DHT22;9505;50.882;5.350;2022-11-20T14:40:44;7.50;99.90
18753;DHT22;9505;50.882;5.350;2022-11-20T14:43:27;7.50;99.90
18753;DHT22;9505;50.882;5.350;2022-11-20T14:45:57;7.50;99.90
18753;DHT22;9505;50.882;5.350;2022-11-20T14:51:04;7.50;99.90
18753;DHT22;9505;50.882;5.350;2022-11-20T14:53:29;7.50;99.90
18753;DHT22;9505;50.882;5.350;2022-11-20T14:56:01;7.40;99.90
18753;DHT22;9505;50.882;5.350;2022-11-20T14:58:31;7.30;99.90
18753;DHT22;9505;50.882;5.350;2022-11-20T15:01:03;7.40;99.90
18753;DHT22;9505;50.882;5.350;2022-11-20T15:03:37;7.50;99.90
18753;DHT22;9505;50.882;5.350;2022-11-20T15:06:05;7.50;99.90
18753;DHT22;9505;50.882;5.350;2022-11-20T15:08:31;7.50;99.90
18753;DHT22;9505;50.882;5.350;2022-11-20T15:10:57;7.60;99.90
18753;DHT22;9505;50.882;5.350;2022-11-20T15:13:30;7.60;99.90
18753;DHT22;9505;50.882;5.350;2022-11-20T15:15:58;7.60;99.90
18753;DHT22;9505;50.882;5.350;2022-11-20T15:18:29;7.60;99.90
18753;DHT22;9505;50.882;5.350;2022-11-20T15:20:56;7.60;99.90
18753;DHT22;9505;50.882;5.350;2022-11-20T15:23:23;7.50;99.90
18753;DHT22;9505;50.882;5.350;2022-11-20T15:25:49;7.50;99.90
18753;DHT22;9505;50.882;5.350;2022-11-20T15:30:44;7.70;99.90
18753;DHT22;9505;50.882;5.350;2022-11-20T15:33:10;7.70;99.90
18753;DHT22;9505;50.882;5.350;2022-11-20T15:35:36;7.60;99.90
18753;DHT22;9505;50.882;5.350;2022-11-20T15:38:01;7.60;99.90
18753;DHT22;9505;50.882;5.350;2022-11-20T15:40:27;7.70;99.90
18753;DHT22;9505;50.882;5.350;2022-11-20T15:42:52;7.70;99.90
18753;DHT22;9505;50.882;5.350;2022-11-20T15:45:41;7.70;99.90
18753;DHT22;9505;50.882;5.350;2022-11-20T15:48:38;7.70;99.90
18753;DHT22;9505;50.882;5.350;2022-11-20T15:53:37;7.70;99.90
18753;DHT22;9505;50.882;5.350;2022-11-20T15:56:04;7.80;99.90
18753;DHT22;9505;50.882;5.350;2022-11-20T15:58:29;7.80;99.90
18753;DHT22;9505;50.882;5.350;2022-11-20T16:00:55;7.80;99.90
18753;DHT22;9505;50.882;5.350;2022-11-20T16:03:21;7.80;99.90
18753;DHT22;9505;50.882;5.350;2022-11-20T16:05:47;7.70;99.90
18753;DHT22;9505;50.882;5.350;2022-11-20T16:08:13;7.70;99.90
18753;DHT22;9505;50.882;5.350;2022-11-20T16:10:40;7.60;99.90
18753;DHT22;9505;50.882;5.350;2022-11-20T16:13:12;7.70;99.90
18753;DHT22;9505;50.882;5.350;2022-11-20T16:15:58;7.80;99.90
18753;DHT22;9505;50.882;5.350;2022-11-20T16:18:25;7.70;99.90
18753;DHT22;9505;50.882;5.350;2022-11-20T16:20:52;7.80;99.90
18753;DHT22;9505;50.882;5.350;2022-11-20T16:23:19;7.80;99.90
18753;DHT22;9505;50.882;5.350;2022-11-20T16:25:46;7.80;99.90
18753;DHT22;9505;50.882;5.350;2022-11-20T16:28:11;7.80;99.90
18753;DHT22;9505;50.882;5.350;2022-11-20T16:30:37;7.80;99.90
18753;DHT22;9505;50.882;5.350;2022-11-20T16:33:03;7.80;99.90
18753;DHT22;9505;50.882;5.350;2022-11-20T16:35:30;7.90;99.90
18753;DHT22;9505;50.882;5.350;2022-11-20T16:37:57;7.90;99.90
18753;DHT22;9505;50.882;5.350;2022-11-20T16:40:24;7.90;99.90
18753;DHT22;9505;50.882;5.350;2022-11-20T16:42:50;8.00;99.90
18753;DHT22;9505;50.882;5.350;2022-11-20T16:45:16;8.10;99.90
18753;DHT22;9505;50.882;5.350;2022-11-20T16:47:42;8.10;99.90
18753;DHT22;9505;50.882;5.350;2022-11-20T16:50:08;8.10;99.90
18753;DHT22;9505;50.882;5.350;2022-11-20T16:52:33;8.10;99.90
18753;DHT22;9505;50.882;5.350;2022-11-20T16:54:59;8.10;99.90
18753;DHT22;9505;50.882;5.350;2022-11-20T16:57:27;8.10;99.90
18753;DHT22;9505;50.882;5.350;2022-11-20T16:59:54;8.10;99.90
18753;DHT22;9505;50.882;5.350;2022-11-20T17:02:20;8.10;99.90
18753;DHT22;9505;50.882;5.350;2022-11-20T17:04:45;8.10;99.90
18753;DHT22;9505;50.882;5.350;2022-11-20T17:07:11;8.10;99.90
18753;DHT22;9505;50.882;5.350;2022-11-20T17:09:37;8.10;99.90
18753;DHT22;9505;50.882;5.350;2022-11-20T17:12:03;8.10;99.90
18753;DHT22;9505;50.882;5.350;2022-11-20T17:14:29;8.00;99.90
18753;DHT22;9505;50.882;5.350;2022-11-20T17:16:54;8.00;99.90
18753;DHT22;9505;50.882;5.350;2022-11-20T17:19:20;8.00;99.90
18753;DHT22;9505;50.882;5.350;2022-11-20T17:21:45;8.00;99.90
18753;DHT22;9505;50.882;5.350;2022-11-20T17:24:12;7.90;99.90
18753;DHT22;9505;50.882;5.350;2022-11-20T17:26:41;8.00;99.90
18753;DHT22;9505;50.882;5.350;2022-11-20T17:29:12;7.90;99.90
18753;DHT22;9505;50.882;5.350;2022-11-20T17:31:38;7.90;99.90
18753;DHT22;9505;50.882;5.350;2022-11-20T17:34:06;7.90;99.90
18753;DHT22;9505;50.882;5.350;2022-11-20T17:36:32;7.90;99.90
18753;DHT22;9505;50.882;5.350;2022-11-20T17:38:58;7.90;99.90
18753;DHT22;9505;50.882;5.350;2022-11-20T17:41:25;7.80;99.90
18753;DHT22;9505;50.882;5.350;2022-11-20T17:43:59;7.80;99.90
18753;DHT22;9505;50.882;5.350;2022-11-20T17:46:27;7.90;99.90
18753;DHT22;9505;50.882;5.350;2022-11-20T17:48:54;7.80;99.90
18753;DHT22;9505;50.882;5.350;2022-11-20T17:51:25;7.90;99.90
18753;DHT22;9505;50.882;5.350;2022-11-20T17:53:53;7.90;99.90